createdAt,value
2022-11-05T00:00:09.600Z,8.2
2022-11-05T00:03:10.003Z,8.2
2022-11-05T00:06:09.546Z,8.2
2022-11-05T00:09:09.512Z,8.1
2022-11-05T00:12:09.518Z,8.1
2022-11-05T00:15:09.544Z,8
2022-11-05T00:18:09.538Z,7.9
2022-11-05T00:21:09.533Z,7.9
2022-11-05T00:24:09.475Z,7.8
2022-11-05T00:27:09.568Z,7.7
2022-11-05T00:30:09.630Z,7.6
2022-11-05T00:33:10.092Z,7.6
2022-11-05T00:36:09.521Z,7.6
2022-11-05T00:39:09.557Z,7.6
2022-11-05T00:42:09.589Z,7.6
2022-11-05T00:45:09.715Z,7.5
2022-11-05T00:48:09.583Z,7.4
2022-11-05T00:51:09.550Z,7.3
2022-11-05T00:54:09.536Z,7.2
2022-11-05T00:57:13.760Z,7.1
2022-11-05T01:00:09.654Z,7.1
2022-11-05T01:03:10.017Z,7.1
2022-11-05T01:06:09.587Z,7
2022-11-05T01:09:09.508Z,6.9
2022-11-05T01:12:09.571Z,6.9
2022-11-05T01:15:09.564Z,6.9
2022-11-05T01:18:09.586Z,6.9
2022-11-05T01:21:09.615Z,6.9
2022-11-05T01:24:09.575Z,7
2022-11-05T01:27:09.598Z,6.9
2022-11-05T01:30:09.596Z,6.9
2022-11-05T01:33:09.866Z,6.8
2022-11-05T01:36:09.557Z,6.8
2022-11-05T01:39:09.570Z,6.8
2022-11-05T01:42:09.553Z,6.7
2022-11-05T01:45:09.648Z,6.7
2022-11-05T01:48:09.589Z,6.7
2022-11-05T01:51:09.573Z,6.7
2022-11-05T01:54:09.548Z,6.7
2022-11-05T01:57:09.542Z,6.7
2022-11-05T02:00:09.550Z,6.7
2022-11-05T02:03:10.481Z,6.6
2022-11-05T02:06:09.655Z,6.6
2022-11-05T02:09:09.487Z,6.5
2022-11-05T02:12:09.612Z,6.5
2022-11-05T02:15:09.530Z,6.4
2022-11-05T02:18:09.499Z,6.4
2022-11-05T02:21:09.584Z,6.3
2022-11-05T02:24:09.479Z,6.3
2022-11-05T02:27:09.506Z,6.2
2022-11-05T02:30:09.546Z,6.2
2022-11-05T02:33:10.191Z,6.1
2022-11-05T02:36:09.557Z,6.2
2022-11-05T02:39:09.524Z,6.1
2022-11-05T02:42:14.195Z,6.1
2022-11-05T02:45:09.535Z,6.1
2022-11-05T02:48:09.537Z,6.2
2022-11-05T02:51:09.855Z,6.2
2022-11-05T02:54:09.530Z,6.2
2022-11-05T02:57:09.577Z,6.2
2022-11-05T03:00:09.548Z,6.1
2022-11-05T03:03:10.392Z,6.1
2022-11-05T03:06:09.545Z,6.1
2022-11-05T03:09:09.551Z,6
2022-11-05T03:12:09.597Z,6
2022-11-05T03:15:09.697Z,6
2022-11-05T03:18:09.705Z,6
2022-11-05T03:21:09.715Z,6
2022-11-05T03:24:09.540Z,5.9
2022-11-05T03:27:09.524Z,5.9
2022-11-05T03:30:09.572Z,5.9
2022-11-05T03:33:09.723Z,5.8
2022-11-05T03:36:09.519Z,5.9
2022-11-05T03:39:09.531Z,5.9
2022-11-05T03:42:09.532Z,5.9
2022-11-05T03:45:09.583Z,5.9
2022-11-05T03:48:09.615Z,5.9
2022-11-05T03:51:09.465Z,5.9
2022-11-05T03:54:09.570Z,5.8
2022-11-05T03:57:09.608Z,5.9
2022-11-05T04:00:09.596Z,5.8
2022-11-05T04:03:10.528Z,5.8
2022-11-05T04:06:09.507Z,5.7
2022-11-05T04:09:09.551Z,5.7
2022-11-05T04:12:09.568Z,5.7
2022-11-05T04:15:09.509Z,5.8
2022-11-05T04:18:09.517Z,5.8
2022-11-05T04:21:09.542Z,5.7
2022-11-05T04:24:09.574Z,5.7
2022-11-05T04:27:09.576Z,5.7
2022-11-05T04:30:09.589Z,5.6
2022-11-05T04:33:09.941Z,5.7
2022-11-05T04:36:09.558Z,5.7
2022-11-05T04:39:09.569Z,5.6
2022-11-05T04:42:09.552Z,5.7
2022-11-05T04:45:09.513Z,5.7
2022-11-05T04:48:09.593Z,5.6
2022-11-05T04:51:09.531Z,5.5
2022-11-05T04:54:09.560Z,5.4
2022-11-05T04:57:09.494Z,5.2
2022-11-05T05:00:09.620Z,4.9
2022-11-05T05:03:09.779Z,4.7
2022-11-05T05:06:13.132Z,4.4
2022-11-05T05:09:09.519Z,4.2
2022-11-05T05:12:09.524Z,4.1
2022-11-05T05:15:09.531Z,4
2022-11-05T05:18:09.481Z,3.9
2022-11-05T05:21:09.546Z,3.7
2022-11-05T05:24:09.530Z,3.7
2022-11-05T05:27:09.602Z,3.6
2022-11-05T05:30:09.558Z,3.6
2022-11-05T05:33:09.724Z,3.6
2022-11-05T05:36:16.072Z,3.4
2022-11-05T05:39:09.457Z,3.4
2022-11-05T05:42:09.612Z,3.6
2022-11-05T05:45:09.569Z,3.7
2022-11-05T05:48:09.549Z,4
2022-11-05T05:51:09.554Z,4.3
2022-11-05T05:54:09.565Z,4.6
2022-11-05T05:57:09.551Z,4.7
2022-11-05T06:00:09.577Z,4.9
2022-11-05T06:03:10.498Z,4.9
2022-11-05T06:06:09.532Z,5
2022-11-05T06:09:09.546Z,4.9
2022-11-05T06:12:09.554Z,4.7
2022-11-05T06:15:09.558Z,4.5
2022-11-05T06:18:09.594Z,4.3
2022-11-05T06:21:09.474Z,4.2
2022-11-05T06:24:09.609Z,4.2
2022-11-05T06:27:09.568Z,4.2
2022-11-05T06:30:09.876Z,4.6
2022-11-05T06:33:09.890Z,4.9
2022-11-05T06:36:09.881Z,5.1
2022-11-05T06:39:09.537Z,5.2
2022-11-05T06:42:28.424Z,5.2
2022-11-05T06:45:09.580Z,5.4
2022-11-05T06:48:09.582Z,5.4
2022-11-05T06:51:09.640Z,5.4
2022-11-05T06:54:10.023Z,5.5
2022-11-05T06:57:09.591Z,5.5
2022-11-05T07:00:17.015Z,5.5
2022-11-05T07:03:09.689Z,5.5
2022-11-05T07:06:09.623Z,5.5
2022-11-05T07:09:10.218Z,5.5
2022-11-05T07:12:09.524Z,5.6
2022-11-05T07:15:09.531Z,5.6
2022-11-05T07:18:09.931Z,5.7
2022-11-05T07:21:09.591Z,5.6
2022-11-05T07:24:09.552Z,5.6
2022-11-05T07:27:09.566Z,5.6
2022-11-05T07:30:09.694Z,5.8
2022-11-05T07:33:09.914Z,6
2022-11-05T07:36:09.657Z,6.1
2022-11-05T07:39:09.775Z,6.2
2022-11-05T07:42:09.625Z,6.4
2022-11-05T07:45:09.578Z,6.4
2022-11-05T07:48:09.777Z,6.6
2022-11-05T07:51:09.536Z,6.6
2022-11-05T07:54:09.631Z,6.7
2022-11-05T07:57:09.545Z,6.8
2022-11-05T08:00:09.689Z,6.9
2022-11-05T08:03:20.194Z,7
2022-11-05T08:06:09.634Z,7.1
2022-11-05T08:09:09.592Z,7.1
2022-11-05T08:12:12.351Z,7.2
2022-11-05T08:15:09.630Z,7.2
2022-11-05T08:18:09.638Z,7.3
2022-11-05T08:21:09.627Z,7.4
2022-11-05T08:24:09.636Z,7.4
2022-11-05T08:27:09.675Z,7.4
2022-11-05T08:30:09.716Z,7.6
2022-11-05T08:33:09.847Z,7.6
2022-11-05T08:36:09.669Z,7.6
2022-11-05T08:39:12.920Z,8
2022-11-05T08:42:09.627Z,8.4
2022-11-05T08:45:09.733Z,8.7
2022-11-05T08:48:09.636Z,9.1
2022-11-05T08:51:09.601Z,9.3
2022-11-05T08:54:09.575Z,9.4
2022-11-05T08:57:09.628Z,9.6
2022-11-05T09:00:10.630Z,9.7
2022-11-05T09:03:10.088Z,9.9
2022-11-05T09:06:09.610Z,10.2
2022-11-05T09:09:09.596Z,10.4
2022-11-05T09:12:22.059Z,10.6
2022-11-05T09:15:09.564Z,10.7
2022-11-05T09:18:09.725Z,10.9
2022-11-05T09:21:09.731Z,11.2
2022-11-05T09:24:09.603Z,11.6
2022-11-05T09:27:09.578Z,11.8
2022-11-05T09:30:09.639Z,12.1
2022-11-05T09:33:09.883Z,12.4
2022-11-05T09:36:09.615Z,12.8
2022-11-05T09:39:10.400Z,13.1
2022-11-05T09:42:10.018Z,13.6
2022-11-05T09:45:09.708Z,13.1
2022-11-05T09:48:09.730Z,12.8
2022-11-05T09:51:09.587Z,12.8
2022-11-05T09:54:09.645Z,12.3
2022-11-05T09:57:09.592Z,12.6
2022-11-05T10:00:09.695Z,13
2022-11-05T10:03:09.870Z,13.3
2022-11-05T10:06:09.672Z,13.1
2022-11-05T10:09:09.582Z,12.1
2022-11-05T10:12:09.589Z,11.4
2022-11-05T10:15:09.861Z,11.8
2022-11-05T10:18:09.609Z,12.5
2022-11-05T10:21:09.628Z,13.6
2022-11-05T10:24:09.773Z,14.1
2022-11-05T10:27:09.619Z,14.4
2022-11-05T10:30:09.688Z,14.3
2022-11-05T10:33:09.892Z,14.1
2022-11-05T10:36:09.626Z,13.9
2022-11-05T10:39:09.640Z,13.9
2022-11-05T10:42:09.722Z,13.9
2022-11-05T10:45:09.675Z,13.9
2022-11-05T10:48:09.650Z,14.2
2022-11-05T10:51:09.726Z,13.9
2022-11-05T10:54:11.249Z,13.4
2022-11-05T10:57:09.697Z,13.5
2022-11-05T11:00:09.938Z,13.8
2022-11-05T11:03:09.916Z,13.8
2022-11-05T11:06:09.670Z,13.8
2022-11-05T11:09:09.841Z,14.1
2022-11-05T11:12:09.691Z,14.5
2022-11-05T11:15:09.630Z,14.7
2022-11-05T11:18:09.641Z,14.7
2022-11-05T11:21:09.756Z,14.6
2022-11-05T11:24:09.710Z,14.7
2022-11-05T11:27:09.611Z,14.7
2022-11-05T11:30:09.707Z,14.3
2022-11-05T11:33:10.097Z,13.8
2022-11-05T11:36:09.634Z,14.1
2022-11-05T11:39:09.687Z,13.8
2022-11-05T11:42:09.583Z,13.4
2022-11-05T11:45:09.612Z,13.3
2022-11-05T11:48:09.600Z,13.1
2022-11-05T11:51:09.661Z,13.2
2022-11-05T11:54:09.570Z,13.4
2022-11-05T11:57:15.256Z,13.5
2022-11-05T12:00:19.125Z,13.5
2022-11-05T12:03:11.576Z,13.5
2022-11-05T12:06:09.597Z,13.1
2022-11-05T12:09:16.034Z,13.1
2022-11-05T12:12:09.588Z,13
2022-11-05T12:15:10.355Z,12.8
2022-11-05T12:18:09.635Z,12.8
2022-11-05T12:21:09.788Z,12.6
2022-11-05T12:24:09.633Z,12.4
2022-11-05T12:27:09.701Z,12.1
2022-11-05T12:30:09.741Z,11.9
2022-11-05T12:33:10.598Z,11.8
2022-11-05T12:36:09.667Z,11.8
2022-11-05T12:39:09.714Z,11.7
2022-11-05T12:42:09.554Z,11.8
2022-11-05T12:45:09.707Z,11.9
2022-11-05T12:48:09.635Z,11.9
2022-11-05T12:51:09.764Z,12.1
2022-11-05T12:54:09.665Z,11.9
2022-11-05T12:57:09.825Z,11.9
2022-11-05T13:00:09.850Z,11.9
2022-11-05T13:03:10.156Z,11.8
2022-11-05T13:06:15.127Z,11.6
2022-11-05T13:09:09.680Z,11.7
2022-11-05T13:12:10.007Z,11.8
2022-11-05T13:15:09.681Z,11.9
2022-11-05T13:18:09.862Z,12.2
2022-11-05T13:21:09.601Z,12.4
2022-11-05T13:24:09.962Z,12.2
2022-11-05T13:27:09.736Z,12.1
2022-11-05T13:30:10.357Z,12.3
2022-11-05T13:33:09.918Z,12.5
2022-11-05T13:36:09.760Z,12.6
2022-11-05T13:39:09.811Z,12.7
2022-11-05T13:42:09.822Z,12.8
2022-11-05T13:45:09.581Z,12.8
2022-11-05T13:48:09.851Z,13
2022-11-05T13:51:09.591Z,12.9
2022-11-05T13:54:09.872Z,13
2022-11-05T13:57:09.580Z,13
2022-11-05T14:00:10.238Z,12.9
2022-11-05T14:03:09.821Z,12.9
2022-11-05T14:06:09.778Z,13.1
2022-11-05T14:09:09.614Z,13.1
2022-11-05T14:12:09.870Z,12.9
2022-11-05T14:15:09.529Z,12.8
2022-11-05T14:18:09.843Z,12.8
2022-11-05T14:21:09.643Z,12.8
2022-11-05T14:24:09.845Z,12.9
2022-11-05T14:27:09.577Z,12.8
2022-11-05T14:30:09.812Z,12.7
2022-11-05T14:33:09.877Z,12.6
2022-11-05T14:36:09.847Z,12.8
2022-11-05T14:39:13.455Z,12.7
2022-11-05T14:42:09.859Z,12.6
2022-11-05T14:45:09.711Z,12.6
2022-11-05T14:48:09.936Z,12.6
2022-11-05T14:51:09.588Z,12.4
2022-11-05T14:54:09.811Z,12.1
2022-11-05T14:57:09.514Z,11.9
2022-11-05T15:00:10.445Z,11.7
2022-11-05T15:03:09.823Z,11.4
2022-11-05T15:06:09.764Z,11.1
2022-11-05T15:09:09.565Z,10.8
2022-11-05T15:12:09.874Z,10.5
2022-11-05T15:15:09.737Z,10.3
2022-11-05T15:18:09.867Z,10
2022-11-05T15:21:09.546Z,9.8
2022-11-05T15:24:09.907Z,9.6
2022-11-05T15:27:09.561Z,9.4
2022-11-05T15:30:10.042Z,9.2
2022-11-05T15:33:09.926Z,8.9
2022-11-05T15:36:09.719Z,8.6
2022-11-05T15:39:38.689Z,8.2
2022-11-05T15:42:09.745Z,7.9
2022-11-05T15:45:09.592Z,7.7
2022-11-05T15:48:09.632Z,7.4
2022-11-05T15:51:09.550Z,7.2
2022-11-05T15:54:41.279Z,7
2022-11-05T15:57:09.550Z,6.9
2022-11-05T16:00:09.684Z,6.6
2022-11-05T16:03:09.832Z,6.4
2022-11-05T16:06:09.811Z,6.2
2022-11-05T16:09:09.476Z,6.1
2022-11-05T16:12:09.892Z,6
2022-11-05T16:15:09.537Z,5.9
2022-11-05T16:18:09.711Z,5.9
2022-11-05T16:21:09.536Z,5.9
2022-11-05T16:24:09.621Z,6
2022-11-05T16:27:19.285Z,6.2
2022-11-05T16:30:09.864Z,6.4
2022-11-05T16:33:09.762Z,6.7
2022-11-05T16:36:09.634Z,6.9
2022-11-05T16:39:09.948Z,7.1
2022-11-05T16:42:09.661Z,7.1
2022-11-05T16:45:09.516Z,7.2
2022-11-05T16:48:09.886Z,7.2
2022-11-05T16:51:09.536Z,7.3
2022-11-05T16:54:09.672Z,7.4
2022-11-05T16:57:09.706Z,7.4
2022-11-05T17:00:09.651Z,7.4
2022-11-05T17:03:09.873Z,7.5
2022-11-05T17:06:09.670Z,7.4
2022-11-05T17:09:09.518Z,7.4
2022-11-05T17:12:09.657Z,7.4
2022-11-05T17:15:09.557Z,7.4
2022-11-05T17:18:12.764Z,7.4
2022-11-05T17:21:09.483Z,7
2022-11-05T17:24:09.624Z,6.7
2022-11-05T17:27:09.507Z,6.5
2022-11-05T17:30:09.634Z,6.3
2022-11-05T17:33:10.405Z,6.2
2022-11-05T17:36:10.035Z,6.1
2022-11-05T17:39:09.622Z,5.9
2022-11-05T17:42:09.914Z,5.8
2022-11-05T17:45:09.556Z,5.8
2022-11-05T17:48:09.634Z,5.8
2022-11-05T17:51:09.569Z,5.8
2022-11-05T17:54:09.599Z,5.8
2022-11-05T17:57:09.533Z,5.8
2022-11-05T18:00:10.609Z,5.8
2022-11-05T18:03:09.797Z,5.7
2022-11-05T18:06:09.749Z,5.7
2022-11-05T18:09:09.623Z,5.6
2022-11-05T18:12:09.620Z,5.6
2022-11-05T18:15:09.612Z,5.6
2022-11-05T18:18:09.969Z,5.6
2022-11-05T18:21:09.559Z,5.5
2022-11-05T18:24:09.693Z,5.5
2022-11-05T18:27:09.541Z,5.4
2022-11-05T18:30:09.777Z,5.4
2022-11-05T18:33:10.107Z,5.4
2022-11-05T18:36:09.742Z,5.4
2022-11-05T18:39:09.869Z,5.4
2022-11-05T18:42:09.612Z,5.4
2022-11-05T18:45:09.889Z,5.4
2022-11-05T18:48:09.944Z,5.4
2022-11-05T18:51:11.138Z,5.4
2022-11-05T18:54:09.675Z,5.4
2022-11-05T18:57:09.522Z,5.4
2022-11-05T19:00:09.624Z,5.4
2022-11-05T19:03:09.875Z,5.3
2022-11-05T19:06:09.571Z,5.1
2022-11-05T19:09:09.635Z,5
2022-11-05T19:12:09.556Z,4.9
2022-11-05T19:15:12.048Z,4.9
2022-11-05T19:18:09.706Z,4.9
2022-11-05T19:21:09.544Z,4.9
2022-11-05T19:24:09.545Z,4.8
2022-11-05T19:27:09.570Z,4.7
2022-11-05T19:30:09.635Z,4.8
2022-11-05T19:33:09.670Z,4.8
2022-11-05T19:39:09.617Z,4.8
2022-11-05T19:42:13.564Z,4.8
2022-11-05T19:45:53.026Z,4.7
2022-11-05T19:48:13.443Z,4.7
2022-11-05T19:51:09.573Z,4.7
2022-11-05T19:54:09.588Z,4.6
2022-11-05T19:57:09.522Z,4.6
2022-11-05T20:00:10.279Z,4.6
2022-11-05T20:03:10.150Z,4.6
2022-11-05T20:06:10.056Z,4.6
2022-11-05T20:09:31.982Z,4.5
2022-11-05T20:12:09.566Z,4.5
2022-11-05T20:15:09.564Z,4.5
2022-11-05T20:18:09.904Z,4.4
2022-11-05T20:21:09.466Z,4.4
2022-11-05T20:24:09.524Z,4.6
2022-11-05T20:27:09.498Z,4.6
2022-11-05T20:30:09.537Z,4.7
2022-11-05T20:33:09.476Z,4.7
2022-11-05T20:36:09.515Z,4.6
2022-11-05T20:39:09.548Z,4.7
2022-11-05T20:42:09.674Z,4.6
2022-11-05T20:45:09.493Z,4.6
2022-11-05T20:48:09.650Z,4.7
2022-11-05T20:51:09.547Z,4.6
2022-11-05T20:54:09.599Z,4.6
2022-11-05T20:57:09.761Z,4.6
2022-11-05T21:00:09.590Z,4.6
2022-11-05T21:03:09.990Z,4.6
2022-11-05T21:06:09.533Z,4.6
2022-11-05T21:09:09.540Z,4.6
2022-11-05T21:12:09.521Z,4.6
2022-11-05T21:15:09.557Z,4.5
2022-11-05T21:18:09.634Z,4.4
2022-11-05T21:21:09.579Z,4.4
2022-11-05T21:24:09.499Z,4.4
2022-11-05T21:27:09.515Z,4.4
2022-11-05T21:30:09.564Z,4.3
2022-11-05T21:33:09.529Z,4.2
2022-11-05T21:36:09.457Z,4.2
2022-11-05T21:39:16.449Z,4.2
2022-11-05T21:42:09.496Z,4.2
2022-11-05T21:45:09.897Z,4.2
2022-11-05T21:51:09.493Z,4.3
2022-11-05T21:54:09.540Z,4.4
2022-11-05T21:57:15.458Z,4.4
2022-11-05T22:00:09.673Z,4.4
2022-11-05T22:03:09.743Z,4.4
2022-11-05T22:06:09.533Z,4.4
2022-11-05T22:09:09.502Z,4.5
2022-11-05T22:12:09.657Z,4.6
2022-11-05T22:15:09.521Z,4.6
2022-11-05T22:18:09.711Z,4.6
2022-11-05T22:21:09.511Z,4.7
2022-11-05T22:24:09.576Z,4.8
2022-11-05T22:27:09.521Z,4.9
2022-11-05T22:30:09.488Z,4.9
2022-11-05T22:33:09.504Z,5
2022-11-05T22:36:09.525Z,5.3
2022-11-05T22:39:09.577Z,5.7
2022-11-05T22:42:18.005Z,6.1
2022-11-05T22:45:09.558Z,6.4
2022-11-05T22:48:18.688Z,6.8
2022-11-05T22:51:10.062Z,7
2022-11-05T22:54:09.505Z,7.1
2022-11-05T22:57:09.507Z,7.1
2022-11-05T23:00:09.841Z,7.2
2022-11-05T23:03:10.697Z,7.4
2022-11-05T23:06:09.554Z,7.5
2022-11-05T23:09:09.490Z,7.5
2022-11-05T23:12:09.525Z,7.6
2022-11-05T23:15:09.477Z,7.7
2022-11-05T23:18:09.703Z,7.6
2022-11-05T23:21:09.495Z,7.6
2022-11-05T23:24:09.517Z,7.5
2022-11-05T23:27:09.530Z,7.4
2022-11-05T23:30:09.513Z,7.2
2022-11-05T23:33:09.534Z,7.1
2022-11-05T23:36:09.556Z,7
2022-11-05T23:39:09.522Z,7
2022-11-05T23:42:09.458Z,6.9
2022-11-05T23:45:14.697Z,6.9
2022-11-05T23:48:09.608Z,6.8
2022-11-05T23:51:09.520Z,6.8
2022-11-05T23:54:09.607Z,6.9
2022-11-05T23:57:09.608Z,6.9
